sensor_id;sensor_type;location;lat;lon;timestamp;P1;durP1;ratioP1;P2;durP2;ratioP2
50393;SDS011;36308;46.312;25.288;2023-11-21T00:01:16;19.92;;;12.23;;
50393;SDS011;36308;46.312;25.288;2023-11-21T00:03:42;16.17;;;10.80;;
50393;SDS011;36308;46.312;25.288;2023-11-21T00:06:08;15.25;;;10.60;;
50393;SDS011;36308;46.312;25.288;2023-11-21T00:08:34;16.48;;;10.90;;
50393;SDS011;36308;46.312;25.288;2023-11-21T00:11:00;15.43;;;10.63;;
50393;SDS011;36308;46.312;25.288;2023-11-21T00:13:28;16.23;;;10.23;;
50393;SDS011;36308;46.312;25.288;2023-11-21T00:15:53;17.88;;;11.48;;
50393;SDS011;36308;46.312;25.288;2023-11-21T00:18:20;17.70;;;11.73;;
50393;SDS011;36308;46.312;25.288;2023-11-21T00:20:46;22.73;;;14.32;;
50393;SDS011;36308;46.312;25.288;2023-11-21T00:23:11;27.30;;;16.63;;
50393;SDS011;36308;46.312;25.288;2023-11-21T00:25:37;36.17;;;22.13;;
50393;SDS011;36308;46.312;25.288;2023-11-21T00:28:02;40.42;;;24.13;;
50393;SDS011;36308;46.312;25.288;2023-11-21T00:30:28;30.42;;;19.38;;
50393;SDS011;36308;46.312;25.288;2023-11-21T00:32:55;28.10;;;16.85;;
50393;SDS011;36308;46.312;25.288;2023-11-21T00:35:20;25.65;;;16.23;;
50393;SDS011;36308;46.312;25.288;2023-11-21T00:37:46;32.08;;;20.02;;
50393;SDS011;36308;46.312;25.288;2023-11-21T00:40:12;32.17;;;19.98;;
50393;SDS011;36308;46.312;25.288;2023-11-21T00:42:40;20.58;;;12.13;;
50393;SDS011;36308;46.312;25.288;2023-11-21T00:45:06;19.58;;;12.70;;
50393;SDS011;36308;46.312;25.288;2023-11-21T00:50:35;18.67;;;11.65;;
50393;SDS011;36308;46.312;25.288;2023-11-21T00:53:00;17.77;;;11.77;;
50393;SDS011;36308;46.312;25.288;2023-11-21T00:55:27;18.27;;;11.85;;
50393;SDS011;36308;46.312;25.288;2023-11-21T00:57:53;19.77;;;11.63;;
50393;SDS011;36308;46.312;25.288;2023-11-21T01:00:18;16.52;;;9.30;;
50393;SDS011;36308;46.312;25.288;2023-11-21T01:02:44;12.05;;;7.75;;
50393;SDS011;36308;46.312;25.288;2023-11-21T01:05:10;11.80;;;7.90;;
50393;SDS011;36308;46.312;25.288;2023-11-21T01:07:35;13.02;;;8.25;;
50393;SDS011;36308;46.312;25.288;2023-11-21T01:10:02;11.70;;;7.63;;
50393;SDS011;36308;46.312;25.288;2023-11-21T01:12:30;11.35;;;6.60;;
50393;SDS011;36308;46.312;25.288;2023-11-21T01:14:56;9.95;;;6.13;;
50393;SDS011;36308;46.312;25.288;2023-11-21T01:17:25;11.45;;;6.85;;
50393;SDS011;36308;46.312;25.288;2023-11-21T01:23:13;8.07;;;5.80;;
50393;SDS011;36308;46.312;25.288;2023-11-21T01:28:29;9.05;;;5.90;;
50393;SDS011;36308;46.312;25.288;2023-11-21T01:30:55;11.30;;;7.10;;
50393;SDS011;36308;46.312;25.288;2023-11-21T01:33:21;9.48;;;6.00;;
50393;SDS011;36308;46.312;25.288;2023-11-21T01:35:49;15.68;;;8.70;;
50393;SDS011;36308;46.312;25.288;2023-11-21T01:38:15;21.80;;;12.32;;
50393;SDS011;36308;46.312;25.288;2023-11-21T01:40:42;29.73;;;16.98;;
50393;SDS011;36308;46.312;25.288;2023-11-21T01:43:08;18.00;;;10.15;;
50393;SDS011;36308;46.312;25.288;2023-11-21T01:45:33;15.77;;;9.75;;
50393;SDS011;36308;46.312;25.288;2023-11-21T01:47:59;14.30;;;8.93;;
50393;SDS011;36308;46.312;25.288;2023-11-21T01:50:27;13.07;;;8.43;;
50393;SDS011;36308;46.312;25.288;2023-11-21T01:52:53;12.25;;;8.18;;
50393;SDS011;36308;46.312;25.288;2023-11-21T01:55:19;14.18;;;9.55;;
50393;SDS011;36308;46.312;25.288;2023-11-21T01:57:45;17.35;;;10.60;;
50393;SDS011;36308;46.312;25.288;2023-11-21T02:00:11;15.10;;;10.20;;
50393;SDS011;36308;46.312;25.288;2023-11-21T02:02:47;16.08;;;10.23;;
50393;SDS011;36308;46.312;25.288;2023-11-21T02:05:17;14.95;;;9.75;;
50393;SDS011;36308;46.312;25.288;2023-11-21T02:07:45;14.38;;;9.27;;
50393;SDS011;36308;46.312;25.288;2023-11-21T02:10:14;14.48;;;9.32;;
50393;SDS011;36308;46.312;25.288;2023-11-21T02:12:41;16.58;;;10.23;;
50393;SDS011;36308;46.312;25.288;2023-11-21T02:15:10;12.95;;;8.60;;
50393;SDS011;36308;46.312;25.288;2023-11-21T02:17:56;13.55;;;8.82;;
50393;SDS011;36308;46.312;25.288;2023-11-21T02:20:24;13.90;;;8.90;;
50393;SDS011;36308;46.312;25.288;2023-11-21T02:22:54;14.02;;;8.95;;
50393;SDS011;36308;46.312;25.288;2023-11-21T02:25:31;16.02;;;9.38;;
50393;SDS011;36308;46.312;25.288;2023-11-21T02:28:01;17.25;;;10.88;;
50393;SDS011;36308;46.312;25.288;2023-11-21T02:30:27;17.77;;;10.50;;
50393;SDS011;36308;46.312;25.288;2023-11-21T02:32:55;15.73;;;10.15;;
50393;SDS011;36308;46.312;25.288;2023-11-21T02:35:24;16.73;;;10.30;;
50393;SDS011;36308;46.312;25.288;2023-11-21T02:37:53;15.35;;;10.40;;
50393;SDS011;36308;46.312;25.288;2023-11-21T02:40:19;15.25;;;9.48;;
50393;SDS011;36308;46.312;25.288;2023-11-21T02:42:49;15.45;;;9.18;;
50393;SDS011;36308;46.312;25.288;2023-11-21T02:45:20;14.05;;;9.20;;
50393;SDS011;36308;46.312;25.288;2023-11-21T02:47:46;16.25;;;9.63;;
50393;SDS011;36308;46.312;25.288;2023-11-21T02:50:12;15.60;;;10.35;;
50393;SDS011;36308;46.312;25.288;2023-11-21T02:52:38;17.75;;;11.38;;
50393;SDS011;36308;46.312;25.288;2023-11-21T02:55:05;19.75;;;11.65;;
50393;SDS011;36308;46.312;25.288;2023-11-21T02:57:32;16.38;;;10.75;;
50393;SDS011;36308;46.312;25.288;2023-11-21T02:59:58;19.70;;;12.45;;
50393;SDS011;36308;46.312;25.288;2023-11-21T03:02:24;18.02;;;11.73;;
50393;SDS011;36308;46.312;25.288;2023-11-21T03:04:50;17.95;;;11.75;;
50393;SDS011;36308;46.312;25.288;2023-11-21T03:07:16;18.83;;;11.90;;
50393;SDS011;36308;46.312;25.288;2023-11-21T03:09:42;19.30;;;12.00;;
50393;SDS011;36308;46.312;25.288;2023-11-21T03:12:07;18.08;;;11.30;;
50393;SDS011;36308;46.312;25.288;2023-11-21T03:14:35;18.48;;;11.80;;
50393;SDS011;36308;46.312;25.288;2023-11-21T03:17:00;19.02;;;12.55;;
50393;SDS011;36308;46.312;25.288;2023-11-21T03:19:26;18.45;;;13.00;;
50393;SDS011;36308;46.312;25.288;2023-11-21T03:21:51;15.00;;;9.98;;
50393;SDS011;36308;46.312;25.288;2023-11-21T03:24:18;16.02;;;10.43;;
50393;SDS011;36308;46.312;25.288;2023-11-21T03:26:45;17.33;;;11.25;;
50393;SDS011;36308;46.312;25.288;2023-11-21T03:29:11;13.65;;;8.75;;
50393;SDS011;36308;46.312;25.288;2023-11-21T03:31:37;19.17;;;12.45;;
50393;SDS011;36308;46.312;25.288;2023-11-21T03:34:02;17.48;;;11.68;;
50393;SDS011;36308;46.312;25.288;2023-11-21T03:36:28;18.00;;;11.02;;
50393;SDS011;36308;46.312;25.288;2023-11-21T03:38:54;19.38;;;10.73;;
50393;SDS011;36308;46.312;25.288;2023-11-21T03:41:20;17.38;;;11.23;;
50393;SDS011;36308;46.312;25.288;2023-11-21T03:43:46;17.05;;;10.15;;
50393;SDS011;36308;46.312;25.288;2023-11-21T03:46:11;18.75;;;10.63;;
50393;SDS011;36308;46.312;25.288;2023-11-21T03:48:37;17.98;;;10.93;;
50393;SDS011;36308;46.312;25.288;2023-11-21T03:51:03;16.35;;;10.52;;
50393;SDS011;36308;46.312;25.288;2023-11-21T03:53:29;15.88;;;10.27;;
50393;SDS011;36308;46.312;25.288;2023-11-21T03:55:54;18.48;;;10.55;;
50393;SDS011;36308;46.312;25.288;2023-11-21T03:58:20;16.05;;;9.55;;
50393;SDS011;36308;46.312;25.288;2023-11-21T04:00:46;18.02;;;10.85;;
50393;SDS011;36308;46.312;25.288;2023-11-21T04:03:13;12.15;;;7.70;;
50393;SDS011;36308;46.312;25.288;2023-11-21T04:05:39;12.43;;;7.60;;
50393;SDS011;36308;46.312;25.288;2023-11-21T04:08:06;12.95;;;7.82;;
50393;SDS011;36308;46.312;25.288;2023-11-21T04:10:32;12.23;;;8.07;;
50393;SDS011;36308;46.312;25.288;2023-11-21T04:12:58;13.73;;;8.27;;
50393;SDS011;36308;46.312;25.288;2023-11-21T04:15:25;11.93;;;7.47;;
50393;SDS011;36308;46.312;25.288;2023-11-21T04:17:51;30.08;;;20.45;;
50393;SDS011;36308;46.312;25.288;2023-11-21T04:20:16;26.17;;;18.23;;
50393;SDS011;36308;46.312;25.288;2023-11-21T04:22:43;23.10;;;16.67;;
50393;SDS011;36308;46.312;25.288;2023-11-21T04:25:10;18.20;;;13.35;;
50393;SDS011;36308;46.312;25.288;2023-11-21T04:27:37;22.83;;;16.63;;
50393;SDS011;36308;46.312;25.288;2023-11-21T04:30:04;21.25;;;15.07;;
50393;SDS011;36308;46.312;25.288;2023-11-21T04:32:30;17.48;;;12.15;;
50393;SDS011;36308;46.312;25.288;2023-11-21T04:34:56;23.15;;;13.63;;
50393;SDS011;36308;46.312;25.288;2023-11-21T04:37:22;20.08;;;13.93;;
50393;SDS011;36308;46.312;25.288;2023-11-21T04:39:48;20.00;;;13.32;;
50393;SDS011;36308;46.312;25.288;2023-11-21T04:42:14;18.27;;;11.93;;
50393;SDS011;36308;46.312;25.288;2023-11-21T04:44:39;15.75;;;10.07;;
50393;SDS011;36308;46.312;25.288;2023-11-21T04:47:06;14.68;;;9.18;;
50393;SDS011;36308;46.312;25.288;2023-11-21T04:49:32;15.73;;;10.20;;
50393;SDS011;36308;46.312;25.288;2023-11-21T04:51:58;17.85;;;12.07;;
50393;SDS011;36308;46.312;25.288;2023-11-21T04:54:24;14.68;;;9.95;;
50393;SDS011;36308;46.312;25.288;2023-11-21T04:56:49;16.00;;;10.73;;
50393;SDS011;36308;46.312;25.288;2023-11-21T04:59:15;22.60;;;14.38;;
50393;SDS011;36308;46.312;25.288;2023-11-21T05:01:40;26.05;;;16.92;;
50393;SDS011;36308;46.312;25.288;2023-11-21T05:04:06;23.33;;;14.98;;
50393;SDS011;36308;46.312;25.288;2023-11-21T05:06:33;22.48;;;13.75;;
50393;SDS011;36308;46.312;25.288;2023-11-21T05:08:59;21.00;;;13.80;;
50393;SDS011;36308;46.312;25.288;2023-11-21T05:11:26;22.52;;;15.68;;
50393;SDS011;36308;46.312;25.288;2023-11-21T05:13:52;48.53;;;28.23;;
50393;SDS011;36308;46.312;25.288;2023-11-21T05:16:18;34.85;;;21.10;;
50393;SDS011;36308;46.312;25.288;2023-11-21T05:18:45;34.92;;;21.77;;
50393;SDS011;36308;46.312;25.288;2023-11-21T05:21:10;28.70;;;19.83;;
50393;SDS011;36308;46.312;25.288;2023-11-21T05:23:36;28.80;;;19.48;;
50393;SDS011;36308;46.312;25.288;2023-11-21T05:26:02;29.70;;;20.25;;
50393;SDS011;36308;46.312;25.288;2023-11-21T05:28:28;63.95;;;41.17;;
50393;SDS011;36308;46.312;25.288;2023-11-21T05:30:54;52.72;;;34.92;;
50393;SDS011;36308;46.312;25.288;2023-11-21T05:33:20;57.83;;;35.35;;
50393;SDS011;36308;46.312;25.288;2023-11-21T05:35:45;69.45;;;37.65;;
50393;SDS011;36308;46.312;25.288;2023-11-21T05:38:13;52.85;;;31.60;;
50393;SDS011;36308;46.312;25.288;2023-11-21T05:40:40;45.95;;;30.00;;
50393;SDS011;36308;46.312;25.288;2023-11-21T05:43:06;73.13;;;41.08;;
50393;SDS011;36308;46.312;25.288;2023-11-21T05:45:32;44.97;;;29.17;;
50393;SDS011;36308;46.312;25.288;2023-11-21T05:47:58;51.17;;;27.08;;
50393;SDS011;36308;46.312;25.288;2023-11-21T05:50:23;38.90;;;25.45;;
50393;SDS011;36308;46.312;25.288;2023-11-21T05:52:49;45.95;;;25.10;;
50393;SDS011;36308;46.312;25.288;2023-11-21T05:55:14;42.85;;;26.35;;
50393;SDS011;36308;46.312;25.288;2023-11-21T05:57:41;43.15;;;25.48;;
50393;SDS011;36308;46.312;25.288;2023-11-21T06:00:09;51.97;;;29.20;;
50393;SDS011;36308;46.312;25.288;2023-11-21T06:02:39;44.33;;;25.10;;
50393;SDS011;36308;46.312;25.288;2023-11-21T06:05:09;40.28;;;23.33;;
50393;SDS011;36308;46.312;25.288;2023-11-21T06:07:35;36.25;;;22.23;;
50393;SDS011;36308;46.312;25.288;2023-11-21T06:10:02;33.60;;;22.88;;
50393;SDS011;36308;46.312;25.288;2023-11-21T06:12:31;48.58;;;29.05;;
50393;SDS011;36308;46.312;25.288;2023-11-21T06:15:00;55.17;;;38.28;;
50393;SDS011;36308;46.312;25.288;2023-11-21T06:17:30;58.85;;;39.67;;
50393;SDS011;36308;46.312;25.288;2023-11-21T06:19:56;104.95;;;42.38;;
50393;SDS011;36308;46.312;25.288;2023-11-21T06:22:21;107.82;;;44.28;;
50393;SDS011;36308;46.312;25.288;2023-11-21T06:24:46;105.30;;;45.40;;
50393;SDS011;36308;46.312;25.288;2023-11-21T06:27:12;90.47;;;43.47;;
50393;SDS011;36308;46.312;25.288;2023-11-21T06:29:38;81.72;;;43.22;;
50393;SDS011;36308;46.312;25.288;2023-11-21T06:32:04;70.72;;;38.92;;
50393;SDS011;36308;46.312;25.288;2023-11-21T06:34:30;49.22;;;30.98;;
50393;SDS011;36308;46.312;25.288;2023-11-21T06:36:56;34.33;;;20.13;;
50393;SDS011;36308;46.312;25.288;2023-11-21T06:39:21;25.13;;;16.98;;
50393;SDS011;36308;46.312;25.288;2023-11-21T06:41:49;25.25;;;17.02;;
50393;SDS011;36308;46.312;25.288;2023-11-21T06:44:15;26.63;;;17.30;;
50393;SDS011;36308;46.312;25.288;2023-11-21T06:46:40;21.30;;;14.35;;
50393;SDS011;36308;46.312;25.288;2023-11-21T06:49:07;22.17;;;13.65;;
50393;SDS011;36308;46.312;25.288;2023-11-21T06:51:33;22.63;;;14.75;;
50393;SDS011;36308;46.312;25.288;2023-11-21T06:53:59;20.60;;;14.48;;
50393;SDS011;36308;46.312;25.288;2023-11-21T06:56:24;23.67;;;14.38;;
50393;SDS011;36308;46.312;25.288;2023-11-21T06:58:50;29.52;;;15.43;;
50393;SDS011;36308;46.312;25.288;2023-11-21T07:01:19;23.17;;;15.05;;
50393;SDS011;36308;46.312;25.288;2023-11-21T07:03:45;23.85;;;15.02;;
50393;SDS011;36308;46.312;25.288;2023-11-21T07:06:10;22.27;;;14.80;;
50393;SDS011;36308;46.312;25.288;2023-11-21T07:08:36;20.25;;;13.55;;
50393;SDS011;36308;46.312;25.288;2023-11-21T07:11:03;24.58;;;17.15;;
50393;SDS011;36308;46.312;25.288;2023-11-21T07:13:29;45.83;;;29.30;;
50393;SDS011;36308;46.312;25.288;2023-11-21T07:15:55;42.72;;;26.52;;
50393;SDS011;36308;46.312;25.288;2023-11-21T07:18:21;17.15;;;10.98;;
50393;SDS011;36308;46.312;25.288;2023-11-21T07:20:46;31.73;;;20.15;;
50393;SDS011;36308;46.312;25.288;2023-11-21T07:23:12;27.20;;;17.27;;
50393;SDS011;36308;46.312;25.288;2023-11-21T07:25:37;30.33;;;18.88;;
50393;SDS011;36308;46.312;25.288;2023-11-21T07:28:03;53.85;;;35.47;;
50393;SDS011;36308;46.312;25.288;2023-11-21T07:30:30;61.55;;;40.05;;
50393;SDS011;36308;46.312;25.288;2023-11-21T07:32:56;50.72;;;35.78;;
50393;SDS011;36308;46.312;25.288;2023-11-21T07:35:21;48.78;;;30.92;;
50393;SDS011;36308;46.312;25.288;2023-11-21T07:37:46;36.15;;;26.15;;
50393;SDS011;36308;46.312;25.288;2023-11-21T07:40:13;38.55;;;25.80;;
50393;SDS011;36308;46.312;25.288;2023-11-21T07:42:39;39.55;;;26.08;;
50393;SDS011;36308;46.312;25.288;2023-11-21T07:45:05;37.28;;;25.27;;
50393;SDS011;36308;46.312;25.288;2023-11-21T07:47:32;36.95;;;24.25;;
50393;SDS011;36308;46.312;25.288;2023-11-21T07:49:59;36.78;;;24.90;;
50393;SDS011;36308;46.312;25.288;2023-11-21T07:52:25;34.35;;;25.35;;
50393;SDS011;36308;46.312;25.288;2023-11-21T07:54:51;36.58;;;25.08;;
50393;SDS011;36308;46.312;25.288;2023-11-21T07:57:16;43.08;;;28.73;;
50393;SDS011;36308;46.312;25.288;2023-11-21T07:59:42;41.75;;;28.65;;
50393;SDS011;36308;46.312;25.288;2023-11-21T08:02:07;33.97;;;23.20;;
50393;SDS011;36308;46.312;25.288;2023-11-21T08:04:33;35.78;;;25.30;;
50393;SDS011;36308;46.312;25.288;2023-11-21T08:07:00;34.13;;;22.52;;
50393;SDS011;36308;46.312;25.288;2023-11-21T08:09:26;36.65;;;24.65;;
50393;SDS011;36308;46.312;25.288;2023-11-21T08:11:52;43.85;;;30.08;;
50393;SDS011;36308;46.312;25.288;2023-11-21T08:14:18;45.40;;;31.48;;
50393;SDS011;36308;46.312;25.288;2023-11-21T08:16:44;33.70;;;22.33;;
50393;SDS011;36308;46.312;25.288;2023-11-21T08:19:10;35.90;;;22.58;;
50393;SDS011;36308;46.312;25.288;2023-11-21T08:21:36;34.67;;;23.48;;
50393;SDS011;36308;46.312;25.288;2023-11-21T08:24:06;32.67;;;23.02;;
50393;SDS011;36308;46.312;25.288;2023-11-21T08:26:36;33.35;;;21.60;;
50393;SDS011;36308;46.312;25.288;2023-11-21T08:29:02;30.70;;;21.42;;
50393;SDS011;36308;46.312;25.288;2023-11-21T08:31:27;36.55;;;23.98;;
50393;SDS011;36308;46.312;25.288;2023-11-21T08:33:54;35.15;;;23.98;;
50393;SDS011;36308;46.312;25.288;2023-11-21T08:36:21;38.60;;;25.55;;
50393;SDS011;36308;46.312;25.288;2023-11-21T08:38:49;36.20;;;25.05;;
50393;SDS011;36308;46.312;25.288;2023-11-21T08:41:15;38.60;;;28.10;;
50393;SDS011;36308;46.312;25.288;2023-11-21T08:43:41;39.75;;;28.17;;
50393;SDS011;36308;46.312;25.288;2023-11-21T08:46:07;41.08;;;29.25;;
50393;SDS011;36308;46.312;25.288;2023-11-21T08:48:34;35.03;;;25.58;;
50393;SDS011;36308;46.312;25.288;2023-11-21T08:51:01;30.77;;;22.77;;
50393;SDS011;36308;46.312;25.288;2023-11-21T08:53:27;36.03;;;25.55;;
50393;SDS011;36308;46.312;25.288;2023-11-21T08:55:52;39.80;;;28.20;;
50393;SDS011;36308;46.312;25.288;2023-11-21T08:58:19;37.25;;;27.67;;
50393;SDS011;36308;46.312;25.288;2023-11-21T09:00:44;38.47;;;26.85;;
50393;SDS011;36308;46.312;25.288;2023-11-21T09:03:11;31.92;;;21.15;;
50393;SDS011;36308;46.312;25.288;2023-11-21T09:05:38;23.52;;;16.42;;
50393;SDS011;36308;46.312;25.288;2023-11-21T09:08:04;18.95;;;14.32;;
50393;SDS011;36308;46.312;25.288;2023-11-21T09:10:30;22.30;;;16.15;;
50393;SDS011;36308;46.312;25.288;2023-11-21T09:12:55;12.82;;;7.75;;
50393;SDS011;36308;46.312;25.288;2023-11-21T09:15:21;23.70;;;14.18;;
50393;SDS011;36308;46.312;25.288;2023-11-21T09:17:47;38.53;;;19.10;;
50393;SDS011;36308;46.312;25.288;2023-11-21T09:20:12;19.90;;;12.63;;
50393;SDS011;36308;46.312;25.288;2023-11-21T09:22:39;23.30;;;13.75;;
50393;SDS011;36308;46.312;25.288;2023-11-21T09:25:05;46.67;;;19.58;;
50393;SDS011;36308;46.312;25.288;2023-11-21T09:27:33;47.30;;;26.67;;
50393;SDS011;36308;46.312;25.288;2023-11-21T09:30:01;7.65;;;5.40;;
50393;SDS011;36308;46.312;25.288;2023-11-21T09:32:26;12.70;;;6.75;;
50393;SDS011;36308;46.312;25.288;2023-11-21T09:34:52;8.95;;;6.22;;
50393;SDS011;36308;46.312;25.288;2023-11-21T09:37:20;9.45;;;6.22;;
50393;SDS011;36308;46.312;25.288;2023-11-21T09:39:46;11.45;;;5.95;;
50393;SDS011;36308;46.312;25.288;2023-11-21T09:42:13;7.50;;;4.85;;
50393;SDS011;36308;46.312;25.288;2023-11-21T09:47:20;11.27;;;6.80;;
50393;SDS011;36308;46.312;25.288;2023-11-21T09:49:47;8.60;;;6.15;;
50393;SDS011;36308;46.312;25.288;2023-11-21T09:52:26;13.63;;;7.53;;
50393;SDS011;36308;46.312;25.288;2023-11-21T09:54:52;9.85;;;5.30;;
50393;SDS011;36308;46.312;25.288;2023-11-21T09:57:19;7.72;;;4.88;;
50393;SDS011;36308;46.312;25.288;2023-11-21T09:59:52;7.90;;;4.80;;
50393;SDS011;36308;46.312;25.288;2023-11-21T10:02:24;7.60;;;5.03;;
50393;SDS011;36308;46.312;25.288;2023-11-21T10:04:52;6.53;;;4.03;;
50393;SDS011;36308;46.312;25.288;2023-11-21T10:07:18;10.27;;;5.78;;
50393;SDS011;36308;46.312;25.288;2023-11-21T10:09:45;11.10;;;6.40;;
50393;SDS011;36308;46.312;25.288;2023-11-21T10:12:13;11.73;;;6.50;;
50393;SDS011;36308;46.312;25.288;2023-11-21T10:14:40;9.77;;;5.68;;
50393;SDS011;36308;46.312;25.288;2023-11-21T10:17:09;9.07;;;4.88;;
50393;SDS011;36308;46.312;25.288;2023-11-21T10:19:37;7.47;;;3.97;;
50393;SDS011;36308;46.312;25.288;2023-11-21T10:22:04;6.32;;;3.70;;
50393;SDS011;36308;46.312;25.288;2023-11-21T10:24:32;5.85;;;4.18;;
50393;SDS011;36308;46.312;25.288;2023-11-21T10:26:58;6.28;;;4.05;;
50393;SDS011;36308;46.312;25.288;2023-11-21T10:29:23;8.98;;;4.93;;
50393;SDS011;36308;46.312;25.288;2023-11-21T10:31:49;8.30;;;4.13;;
50393;SDS011;36308;46.312;25.288;2023-11-21T10:34:17;6.93;;;3.50;;
50393;SDS011;36308;46.312;25.288;2023-11-21T10:36:43;9.77;;;4.72;;
50393;SDS011;36308;46.312;25.288;2023-11-21T10:39:09;11.18;;;5.10;;
50393;SDS011;36308;46.312;25.288;2023-11-21T10:41:43;7.13;;;4.03;;
50393;SDS011;36308;46.312;25.288;2023-11-21T10:44:10;8.63;;;4.50;;
50393;SDS011;36308;46.312;25.288;2023-11-21T10:46:36;10.20;;;5.55;;
50393;SDS011;36308;46.312;25.288;2023-11-21T10:49:03;10.75;;;5.93;;
50393;SDS011;36308;46.312;25.288;2023-11-21T10:51:29;14.75;;;7.10;;
50393;SDS011;36308;46.312;25.288;2023-11-21T10:53:54;10.88;;;5.22;;
50393;SDS011;36308;46.312;25.288;2023-11-21T10:56:23;8.38;;;4.80;;
50393;SDS011;36308;46.312;25.288;2023-11-21T10:58:49;10.80;;;5.00;;
50393;SDS011;36308;46.312;25.288;2023-11-21T11:01:18;9.07;;;4.88;;
50393;SDS011;36308;46.312;25.288;2023-11-21T11:03:46;7.72;;;4.75;;
50393;SDS011;36308;46.312;25.288;2023-11-21T11:06:13;8.13;;;4.47;;
50393;SDS011;36308;46.312;25.288;2023-11-21T11:08:40;7.10;;;4.50;;
50393;SDS011;36308;46.312;25.288;2023-11-21T11:11:06;9.15;;;5.30;;
50393;SDS011;36308;46.312;25.288;2023-11-21T11:13:32;11.27;;;5.13;;
50393;SDS011;36308;46.312;25.288;2023-11-21T11:15:59;9.52;;;5.10;;
50393;SDS011;36308;46.312;25.288;2023-11-21T11:21:35;10.18;;;6.53;;
50393;SDS011;36308;46.312;25.288;2023-11-21T11:23:54;13.30;;;6.25;;
50393;SDS011;36308;46.312;25.288;2023-11-21T11:26:56;12.13;;;5.03;;
50393;SDS011;36308;46.312;25.288;2023-11-21T11:35:06;10.32;;;6.93;;
50393;SDS011;36308;46.312;25.288;2023-11-21T11:37:43;18.92;;;8.68;;
50393;SDS011;36308;46.312;25.288;2023-11-21T11:40:10;10.95;;;5.18;;
50393;SDS011;36308;46.312;25.288;2023-11-21T11:42:37;14.35;;;5.20;;
50393;SDS011;36308;46.312;25.288;2023-11-21T11:45:02;10.93;;;6.90;;
50393;SDS011;36308;46.312;25.288;2023-11-21T11:47:43;12.35;;;6.07;;
50393;SDS011;36308;46.312;25.288;2023-11-21T11:52:54;7.45;;;4.60;;
50393;SDS011;36308;46.312;25.288;2023-11-21T11:55:36;9.23;;;5.72;;
50393;SDS011;36308;46.312;25.288;2023-11-21T11:58:04;14.93;;;6.63;;
50393;SDS011;36308;46.312;25.288;2023-11-21T12:00:34;10.80;;;4.85;;
50393;SDS011;36308;46.312;25.288;2023-11-21T12:03:03;6.00;;;3.58;;
50393;SDS011;36308;46.312;25.288;2023-11-21T12:05:33;9.77;;;4.57;;
50393;SDS011;36308;46.312;25.288;2023-11-21T12:08:10;7.57;;;5.00;;
50393;SDS011;36308;46.312;25.288;2023-11-21T12:10:38;12.85;;;6.68;;
50393;SDS011;36308;46.312;25.288;2023-11-21T12:15:38;22.70;;;9.63;;
50393;SDS011;36308;46.312;25.288;2023-11-21T12:18:05;25.80;;;13.07;;
50393;SDS011;36308;46.312;25.288;2023-11-21T12:20:30;6.75;;;3.83;;
50393;SDS011;36308;46.312;25.288;2023-11-21T12:23:00;9.57;;;4.45;;
50393;SDS011;36308;46.312;25.288;2023-11-21T12:25:29;10.15;;;4.85;;
50393;SDS011;36308;46.312;25.288;2023-11-21T12:27:57;17.15;;;6.25;;
50393;SDS011;36308;46.312;25.288;2023-11-21T12:30:25;11.15;;;6.85;;
50393;SDS011;36308;46.312;25.288;2023-11-21T12:35:24;10.77;;;5.13;;
50393;SDS011;36308;46.312;25.288;2023-11-21T12:37:52;8.77;;;4.95;;
50393;SDS011;36308;46.312;25.288;2023-11-21T12:40:19;6.45;;;4.18;;
50393;SDS011;36308;46.312;25.288;2023-11-21T12:42:48;13.32;;;8.32;;
50393;SDS011;36308;46.312;25.288;2023-11-21T12:45:18;9.63;;;5.10;;
50393;SDS011;36308;46.312;25.288;2023-11-21T12:47:46;12.60;;;5.88;;
50393;SDS011;36308;46.312;25.288;2023-11-21T12:50:20;8.48;;;5.00;;
50393;SDS011;36308;46.312;25.288;2023-11-21T12:52:48;12.50;;;6.80;;
50393;SDS011;36308;46.312;25.288;2023-11-21T12:55:21;13.40;;;6.47;;
50393;SDS011;36308;46.312;25.288;2023-11-21T12:57:51;10.23;;;6.43;;
50393;SDS011;36308;46.312;25.288;2023-11-21T13:00:33;9.00;;;5.07;;
50393;SDS011;36308;46.312;25.288;2023-11-21T13:03:02;8.98;;;4.93;;
50393;SDS011;36308;46.312;25.288;2023-11-21T13:05:35;7.57;;;4.90;;
50393;SDS011;36308;46.312;25.288;2023-11-21T13:08:09;20.30;;;10.35;;
50393;SDS011;36308;46.312;25.288;2023-11-21T13:10:38;21.65;;;9.60;;
50393;SDS011;36308;46.312;25.288;2023-11-21T13:13:07;25.98;;;11.70;;
50393;SDS011;36308;46.312;25.288;2023-11-21T13:15:34;10.45;;;5.07;;
50393;SDS011;36308;46.312;25.288;2023-11-21T13:18:12;11.02;;;5.35;;
50393;SDS011;36308;46.312;25.288;2023-11-21T13:20:38;18.85;;;8.05;;
50393;SDS011;36308;46.312;25.288;2023-11-21T13:23:07;12.35;;;6.03;;
50393;SDS011;36308;46.312;25.288;2023-11-21T13:25:33;19.33;;;9.15;;
50393;SDS011;36308;46.312;25.288;2023-11-21T13:28:00;17.08;;;9.10;;
50393;SDS011;36308;46.312;25.288;2023-11-21T13:30:28;19.50;;;8.88;;
50393;SDS011;36308;46.312;25.288;2023-11-21T13:33:00;19.35;;;8.25;;
50393;SDS011;36308;46.312;25.288;2023-11-21T13:35:30;15.88;;;7.35;;
50393;SDS011;36308;46.312;25.288;2023-11-21T13:38:07;24.52;;;8.40;;
50393;SDS011;36308;46.312;25.288;2023-11-21T13:40:34;38.28;;;18.70;;
50393;SDS011;36308;46.312;25.288;2023-11-21T13:43:08;26.70;;;13.15;;
50393;SDS011;36308;46.312;25.288;2023-11-21T13:45:38;45.88;;;20.55;;
50393;SDS011;36308;46.312;25.288;2023-11-21T13:48:05;25.02;;;12.98;;
50393;SDS011;36308;46.312;25.288;2023-11-21T13:50:38;32.28;;;17.42;;
50393;SDS011;36308;46.312;25.288;2023-11-21T13:53:08;35.80;;;19.20;;
50393;SDS011;36308;46.312;25.288;2023-11-21T13:55:47;34.97;;;17.55;;
50393;SDS011;36308;46.312;25.288;2023-11-21T13:58:19;81.43;;;37.03;;
50393;SDS011;36308;46.312;25.288;2023-11-21T14:00:51;178.90;;;76.15;;
50393;SDS011;36308;46.312;25.288;2023-11-21T14:03:22;163.55;;;73.07;;
50393;SDS011;36308;46.312;25.288;2023-11-21T14:05:57;139.00;;;66.95;;
50393;SDS011;36308;46.312;25.288;2023-11-21T14:08:23;106.10;;;55.05;;
50393;SDS011;36308;46.312;25.288;2023-11-21T14:10:54;110.45;;;58.67;;
50393;SDS011;36308;46.312;25.288;2023-11-21T14:13:25;74.25;;;40.10;;
50393;SDS011;36308;46.312;25.288;2023-11-21T14:15:53;41.45;;;21.23;;
50393;SDS011;36308;46.312;25.288;2023-11-21T14:18:26;28.42;;;16.00;;
50393;SDS011;36308;46.312;25.288;2023-11-21T14:21:06;17.33;;;11.60;;
50393;SDS011;36308;46.312;25.288;2023-11-21T14:23:33;18.85;;;11.63;;
50393;SDS011;36308;46.312;25.288;2023-11-21T14:26:01;21.02;;;12.82;;
50393;SDS011;36308;46.312;25.288;2023-11-21T14:28:27;22.13;;;12.48;;
50393;SDS011;36308;46.312;25.288;2023-11-21T14:30:52;21.70;;;11.90;;
50393;SDS011;36308;46.312;25.288;2023-11-21T14:33:18;19.65;;;11.52;;
50393;SDS011;36308;46.312;25.288;2023-11-21T14:35:43;18.88;;;11.55;;
50393;SDS011;36308;46.312;25.288;2023-11-21T14:38:09;22.40;;;12.68;;
50393;SDS011;36308;46.312;25.288;2023-11-21T14:40:35;45.58;;;25.48;;
50393;SDS011;36308;46.312;25.288;2023-11-21T14:43:04;64.25;;;36.97;;
50393;SDS011;36308;46.312;25.288;2023-11-21T14:45:33;46.38;;;28.15;;